createdAt,value
2023-05-16T00:08:29.924Z,14.35
2023-05-16T00:18:30.838Z,14.07
2023-05-16T00:28:32.024Z,14.12
2023-05-16T00:48:34.487Z,13.98
2023-05-16T00:58:35.237Z,14.20
2023-05-16T01:08:36.506Z,14.07
2023-05-16T01:18:37.732Z,14.04
2023-05-16T01:28:38.714Z,13.96
2023-05-16T01:38:39.884Z,14.00
2023-05-16T01:48:41.107Z,13.97
2023-05-16T01:58:43.532Z,13.76
2023-05-16T02:08:43.490Z,13.84
2023-05-16T02:18:44.595Z,13.73
2023-05-16T02:28:45.545Z,13.69
2023-05-16T02:38:46.704Z,13.49
2023-05-16T02:48:47.884Z,13.20
2023-05-16T02:58:49.152Z,13.35
2023-05-16T03:08:49.943Z,13.39
2023-05-16T03:18:51.210Z,13.20
2023-05-16T03:28:52.125Z,13.18
2023-05-16T03:38:53.179Z,13.23
2023-05-16T03:48:54.286Z,13.27
2023-05-16T03:58:55.585Z,13.08
2023-05-16T04:08:56.621Z,13.04
2023-05-16T04:18:57.535Z,13.07
2023-05-16T04:29:00.131Z,13.21
2023-05-16T04:38:59.488Z,13.31
2023-05-16T04:49:00.532Z,13.40
2023-05-16T04:59:01.791Z,13.46
2023-05-16T05:09:02.650Z,13.62
2023-05-16T05:19:04.310Z,13.54
2023-05-16T05:29:06.295Z,13.57
2023-05-16T05:39:06.125Z,13.77
2023-05-16T05:49:07.310Z,13.52
2023-05-16T05:59:08.312Z,13.33
2023-05-16T06:19:10.569Z,13.29
2023-05-16T06:29:11.201Z,13.36
2023-05-16T06:39:12.377Z,13.37
2023-05-16T06:49:13.290Z,13.45
2023-05-16T06:59:14.549Z,13.50
2023-05-16T07:09:15.687Z,13.57
2023-05-16T07:19:16.521Z,13.74
2023-05-16T07:29:17.736Z,13.81
2023-05-16T07:39:18.687Z,13.60
2023-05-16T07:49:19.848Z,13.70
2023-05-16T07:59:21.209Z,13.70
2023-05-16T08:09:22.008Z,13.56
2023-05-16T08:19:23.211Z,13.55
2023-05-16T08:29:24.334Z,13.82
2023-05-16T08:39:25.243Z,13.92
2023-05-16T08:49:26.449Z,13.90
2023-05-16T08:59:27.505Z,13.90
2023-05-16T09:09:28.554Z,14.03
2023-05-16T09:19:29.540Z,14.11
2023-05-16T09:29:30.913Z,14.12
2023-05-16T09:39:31.667Z,13.87
2023-05-16T09:49:32.586Z,13.89
2023-05-16T09:59:35.619Z,13.96
2023-05-16T10:09:34.680Z,14.04
2023-05-16T10:19:35.790Z,14.28
2023-05-16T10:39:38.107Z,14.50
2023-05-16T10:49:39.043Z,14.57
2023-05-16T10:59:40.156Z,14.71
2023-05-16T11:09:41.038Z,14.59
2023-05-16T11:19:42.283Z,14.65
2023-05-16T11:29:43.025Z,14.63
2023-05-16T11:39:44.109Z,14.94
2023-05-16T11:49:46.067Z,15.08
2023-05-16T11:59:46.411Z,15.09
2023-05-16T12:09:47.341Z,15.18
2023-05-16T12:19:48.265Z,15.38
2023-05-16T12:29:49.358Z,15.51
2023-05-16T12:39:50.452Z,15.55
2023-05-16T12:49:51.885Z,15.56
2023-05-16T12:59:53.120Z,15.64
2023-05-16T13:09:53.849Z,15.67
2023-05-16T13:19:54.953Z,15.72
2023-05-16T13:29:56.080Z,15.72
2023-05-16T13:39:57.180Z,15.85
2023-05-16T13:49:59.364Z,15.94
2023-05-16T14:00:18.091Z,16.27
2023-05-16T14:10:00.831Z,16.55
2023-05-16T14:20:02.038Z,16.57
2023-05-16T14:30:03.267Z,16.42
2023-05-16T14:50:05.709Z,16.29
2023-05-16T15:00:07.535Z,16.17
2023-05-16T15:10:08.112Z,16.07
2023-05-16T15:20:09.395Z,16.06
2023-05-16T15:30:10.528Z,16.02
2023-05-16T15:40:11.679Z,15.98
2023-05-16T15:50:12.832Z,16.00
2023-05-16T16:00:14.001Z,16.04
2023-05-16T16:10:15.191Z,15.91
2023-05-16T16:20:16.314Z,15.78
2023-05-16T16:30:17.500Z,15.70
2023-05-16T16:40:18.643Z,15.76
2023-05-16T16:50:19.773Z,15.75
2023-05-16T17:00:22.260Z,15.71
2023-05-16T17:10:22.273Z,15.66
2023-05-16T17:20:23.433Z,15.50
2023-05-16T17:30:24.684Z,15.46
2023-05-16T17:40:25.570Z,15.46
2023-05-16T17:50:26.592Z,15.46
2023-05-16T18:00:27.659Z,15.38
2023-05-16T18:10:33.941Z,15.40
2023-05-16T18:30:32.944Z,15.31
2023-05-16T18:40:31.937Z,15.32
2023-05-16T18:50:33.373Z,15.19
2023-05-16T19:00:34.368Z,15.14
2023-05-16T19:10:35.633Z,15.09
2023-05-16T19:20:36.679Z,15.14
2023-05-16T19:30:39.497Z,15.20
2023-05-16T19:40:39.086Z,15.15
2023-05-16T19:50:40.179Z,15.05
2023-05-16T20:00:41.897Z,14.92
2023-05-16T20:10:42.423Z,14.77
2023-05-16T20:20:43.415Z,14.74
2023-05-16T20:30:44.683Z,14.73
2023-05-16T20:40:45.713Z,14.75
2023-05-16T20:50:46.852Z,14.83
2023-05-16T21:00:48.213Z,14.84
2023-05-16T21:10:49.076Z,14.85
2023-05-16T21:20:50.250Z,14.94
2023-05-16T21:30:51.451Z,14.80
2023-05-16T21:40:52.654Z,14.84
2023-05-16T21:50:53.602Z,14.82
2023-05-16T22:00:54.972Z,14.92
2023-05-16T22:10:56.199Z,14.93
2023-05-16T22:20:57.397Z,14.88
2023-05-16T22:30:58.136Z,14.96
2023-05-16T22:40:59.355Z,14.86
2023-05-16T22:51:00.736Z,14.82
2023-05-16T23:01:02.215Z,14.78
2023-05-16T23:11:02.835Z,14.71
2023-05-16T23:21:04.001Z,14.65
2023-05-16T23:31:05.148Z,14.65
2023-05-16T23:41:06.690Z,14.58
2023-05-16T23:51:07.836Z,14.59
